Time;durP1;ratioP1;P1;durP2;ratioP2;P2;SDS_P1;SDS_P2;PMS_P1;PMS_P2;Temp;Humidity;BMP_temperature;BMP_pressure;BME280_temperature;BME280_humidity;BME280_pressure;Samples;Min_cycle;Max_cycle;Signal;HPM_P1;HPM_P2
2023/03/15 00:00:49;;;;;;;0.00;0.00;;;3.60;82.00;;;;;;5078990;28;20051;-66
2023/03/15 00:03:14;;;;;;;0.10;0.10;;;3.60;82.00;;;;;;5079223;28;20081;-66
2023/03/15 00:05:45;;;;;;;0.00;0.00;;;3.50;82.00;;;;;;5081191;28;20045;-66
2023/03/15 00:08:11;;;;;;;0.30;0.30;;;3.50;82.10;;;;;;5057009;28;20039;-66
2023/03/15 00:10:41;;;;;;;0.00;0.00;;;3.40;82.50;;;;;;5065911;28;20052;-66
2023/03/15 00:13:08;;;;;;;0.00;0.00;;;3.40;82.60;;;;;;5071595;28;20048;-66
2023/03/15 00:15:34;;;;;;;0.00;0.00;;;3.40;82.70;;;;;;5071652;28;20079;-65
2023/03/15 00:18:02;;;;;;;0.00;0.00;;;3.30;82.70;;;;;;5086280;28;20036;-66
2023/03/15 00:20:31;;;;;;;0.10;0.10;;;3.30;82.70;;;;;;5076618;28;20052;-65
2023/03/15 00:22:57;;;;;;;0.00;0.00;;;3.30;82.70;;;;;;5071320;28;20035;-66
2023/03/15 00:25:23;;;;;;;0.10;0.10;;;3.30;82.50;;;;;;5072831;28;20051;-66
2023/03/15 00:27:49;;;;;;;0.00;0.00;;;3.30;82.40;;;;;;5073112;28;20053;-66
2023/03/15 00:30:15;;;;;;;0.00;0.00;;;3.30;82.40;;;;;;5074342;28;20040;-66
2023/03/15 00:32:40;;;;;;;0.00;0.00;;;3.30;82.40;;;;;;5087625;28;20115;-66
2023/03/15 00:35:06;;;;;;;0.00;0.00;;;3.30;82.40;;;;;;5071662;28;20051;-65
2023/03/15 00:37:32;;;;;;;0.00;0.00;;;3.30;82.40;;;;;;5071557;28;20933;-65
2023/03/15 00:39:57;;;;;;;0.00;0.00;;;3.30;82.30;;;;;;5082984;28;20044;-66
2023/03/15 00:42:26;;;;;;;0.00;0.00;;;3.30;82.30;;;;;;5090096;28;20040;-66
2023/03/15 00:44:54;;;;;;;0.00;0.00;;;3.30;82.40;;;;;;5089722;28;20047;-66
2023/03/15 00:47:19;;;;;;;0.00;0.00;;;3.20;82.40;;;;;;5090299;28;20051;-66
2023/03/15 00:49:45;;;;;;;0.00;0.00;;;3.20;82.40;;;;;;5078005;28;20032;-65
2023/03/15 00:52:11;;;;;;;0.00;0.00;;;3.20;82.40;;;;;;5075039;28;20036;-66
2023/03/15 00:54:37;;;;;;;0.22;0.22;;;3.20;82.40;;;;;;5087422;28;20040;-65
2023/03/15 00:57:02;;;;;;;0.10;0.10;;;3.20;82.50;;;;;;5071085;28;20514;-66
2023/03/15 00:59:33;;;;;;;0.00;0.00;;;3.20;82.40;;;;;;5077109;28;20052;-65
2023/03/15 01:02:00;;;;;;;0.00;0.00;;;3.20;82.50;;;;;;5078373;28;20063;-65
2023/03/15 01:04:26;;;;;;;0.00;0.00;;;3.20;82.40;;;;;;5070547;28;20040;-65
2023/03/15 01:06:52;;;;;;;0.00;0.00;;;3.20;82.40;;;;;;5080057;28;20044;-65
2023/03/15 01:09:17;;;;;;;0.00;0.00;;;3.20;82.50;;;;;;5088639;28;20040;-65
2023/03/15 01:11:44;;;;;;;0.10;0.10;;;3.20;82.50;;;;;;5081067;28;20243;-66
2023/03/15 01:14:10;;;;;;;0.00;0.00;;;3.10;82.50;;;;;;5070469;28;20135;-66
2023/03/15 01:16:35;;;;;;;0.00;0.00;;;3.20;82.60;;;;;;5070268;28;20409;-65
2023/03/15 01:19:01;;;;;;;0.00;0.00;;;3.20;82.60;;;;;;5071525;28;20041;-66
2023/03/15 01:21:27;;;;;;;0.00;0.00;;;3.20;82.40;;;;;;5073844;28;20093;-65
2023/03/15 01:23:53;;;;;;;0.00;0.00;;;3.10;82.20;;;;;;5090721;28;20070;-66
2023/03/15 01:26:19;;;;;;;0.00;0.00;;;3.10;82.30;;;;;;5070919;28;20048;-65
2023/03/15 01:28:45;;;;;;;0.00;0.00;;;3.10;82.20;;;;;;5069704;28;20060;-66
2023/03/15 01:31:16;;;;;;;0.15;0.15;;;3.20;82.40;;;;;;5070275;28;20443;-66
2023/03/15 01:33:41;;;;;;;0.00;0.00;;;3.30;82.00;;;;;;5069608;28;20036;-66
2023/03/15 01:36:07;;;;;;;0.00;0.00;;;3.30;82.00;;;;;;5071985;28;20063;-66
2023/03/15 01:38:33;;;;;;;0.30;0.30;;;3.30;81.80;;;;;;5070082;28;20049;-66
2023/03/15 01:40:59;;;;;;;0.00;0.00;;;3.30;82.40;;;;;;5070604;28;20036;-66
2023/03/15 01:43:27;;;;;;;0.00;0.00;;;3.20;82.30;;;;;;5069270;28;20064;-66
2023/03/15 01:46:05;;;;;;;0.00;0.00;;;3.10;82.70;;;;;;5082562;28;20047;-65
2023/03/15 01:48:43;;;;;;;0.00;0.00;;;3.10;82.50;;;;;;5072160;28;20518;-66
2023/03/15 01:51:41;;;;;;;0.10;0.10;;;2.90;82.70;;;;;;5075979;28;20047;-66
2023/03/15 01:54:24;;;;;;;0.10;0.10;;;2.90;82.60;;;;;;5048317;28;20052;-66
2023/03/15 01:56:57;;;;;;;0.38;0.38;;;2.90;82.50;;;;;;5088714;28;20046;-65
2023/03/15 01:59:29;;;;;;;0.00;0.00;;;2.90;82.50;;;;;;5089944;28;20078;-65
2023/03/15 02:01:58;;;;;;;0.00;0.00;;;2.90;82.50;;;;;;5086769;28;20118;-66
2023/03/15 02:04:37;;;;;;;0.00;0.00;;;2.90;82.40;;;;;;5069165;28;20044;-66
2023/03/15 02:07:05;;;;;;;0.00;0.00;;;2.80;82.60;;;;;;5051871;28;20072;-66
2023/03/15 02:09:55;;;;;;;0.00;0.00;;;2.90;82.70;;;;;;5086617;28;20044;-65
2023/03/15 02:12:21;;;;;;;0.00;0.00;;;2.90;82.40;;;;;;5087835;28;20052;-66
2023/03/15 02:14:50;;;;;;;0.00;0.00;;;2.90;82.30;;;;;;5086930;28;20036;-65
2023/03/15 02:17:18;;;;;;;0.00;0.00;;;2.90;82.20;;;;;;5074354;28;20067;-66
2023/03/15 02:20:08;;;;;;;0.00;0.00;;;2.90;82.20;;;;;;5076388;28;20044;-66
2023/03/15 02:22:54;;;;;;;0.00;0.00;;;2.90;82.20;;;;;;5069082;28;20071;-66
2023/03/15 02:25:46;;;;;;;0.00;0.00;;;2.90;82.30;;;;;;5051783;28;20087;-65
2023/03/15 02:28:14;;;;;;;0.00;0.00;;;2.90;82.30;;;;;;5080811;28;20060;-66
2023/03/15 02:30:40;;;;;;;0.00;0.00;;;2.90;82.40;;;;;;5069200;28;20402;-66
2023/03/15 02:33:11;;;;;;;0.00;0.00;;;3.00;82.40;;;;;;5068672;28;20073;-65
2023/03/15 02:35:37;;;;;;;0.00;0.00;;;3.00;82.40;;;;;;5070437;28;20573;-66
2023/03/15 02:38:02;;;;;;;0.00;0.00;;;3.00;82.30;;;;;;5079613;28;20123;-66
2023/03/15 02:40:29;;;;;;;0.00;0.00;;;3.00;82.20;;;;;;5070566;28;20094;-66
2023/03/15 02:42:59;;;;;;;0.00;0.00;;;3.00;82.30;;;;;;5087309;28;20059;-66
2023/03/15 02:45:27;;;;;;;0.52;0.52;;;3.00;82.30;;;;;;5073676;28;20053;-66
2023/03/15 02:47:53;;;;;;;0.00;0.00;;;3.00;82.30;;;;;;5052997;28;20497;-66
2023/03/15 02:50:19;;;;;;;0.00;0.00;;;3.00;82.30;;;;;;5085226;28;20035;-66
2023/03/15 02:52:44;;;;;;;0.00;0.00;;;3.00;82.30;;;;;;5080901;28;20102;-66
2023/03/15 02:55:10;;;;;;;0.00;0.00;;;3.00;82.20;;;;;;5069306;28;20102;-65
2023/03/15 02:57:36;;;;;;;0.00;0.00;;;3.00;82.30;;;;;;5068809;28;20045;-66
2023/03/15 03:00:12;;;;;;;0.00;0.00;;;2.90;82.40;;;;;;5087603;28;20040;-65
2023/03/15 03:02:38;;;;;;;0.00;0.00;;;2.80;82.50;;;;;;5088294;28;20082;-66
2023/03/15 03:05:04;;;;;;;0.00;0.00;;;2.80;82.50;;;;;;5086725;28;20088;-66
2023/03/15 03:07:30;;;;;;;0.00;0.00;;;2.70;82.80;;;;;;5090384;28;20071;-66
2023/03/15 03:09:55;;;;;;;0.00;0.00;;;2.60;82.90;;;;;;5092346;28;20056;-66
2023/03/15 03:12:21;;;;;;;0.00;0.00;;;2.60;82.80;;;;;;5089572;28;20044;-66
2023/03/15 03:14:47;;;;;;;0.00;0.00;;;2.60;82.90;;;;;;5077447;28;20471;-66
2023/03/15 03:17:13;;;;;;;0.00;0.00;;;2.60;83.00;;;;;;5087002;28;20398;-66
2023/03/15 03:19:38;;;;;;;0.00;0.00;;;2.60;83.00;;;;;;5080948;28;20041;-66
2023/03/15 03:22:04;;;;;;;0.00;0.00;;;2.50;83.00;;;;;;5089374;28;20040;-65
2023/03/15 03:24:30;;;;;;;0.00;0.00;;;2.50;82.90;;;;;;5085109;28;20036;-66
2023/03/15 03:26:56;;;;;;;0.00;0.00;;;2.60;83.00;;;;;;5072440;28;20057;-66
2023/03/15 03:29:23;;;;;;;0.00;0.00;;;2.60;83.00;;;;;;5076196;28;20047;-66
2023/03/15 03:31:49;;;;;;;0.00;0.00;;;2.60;83.00;;;;;;5072226;28;20386;-66
2023/03/15 03:34:15;;;;;;;0.00;0.00;;;2.60;83.10;;;;;;5082788;28;20068;-66
2023/03/15 03:36:42;;;;;;;0.00;0.00;;;2.60;83.00;;;;;;5080646;28;20098;-67
2023/03/15 03:39:08;;;;;;;0.00;0.00;;;2.60;83.00;;;;;;5091663;28;20048;-66
2023/03/15 03:41:34;;;;;;;0.00;0.00;;;2.50;83.20;;;;;;5074445;28;20040;-66
2023/03/15 03:43:59;;;;;;;0.00;0.00;;;2.50;83.30;;;;;;5088255;28;20046;-66
2023/03/15 03:46:27;;;;;;;0.00;0.00;;;2.50;83.50;;;;;;5076780;28;20743;-67
2023/03/15 03:48:53;;;;;;;0.00;0.00;;;2.50;83.60;;;;;;5080640;28;20055;-66
2023/03/15 03:51:19;;;;;;;0.00;0.00;;;2.40;83.80;;;;;;5092817;28;20097;-67
2023/03/15 03:53:45;;;;;;;0.00;0.00;;;2.40;83.80;;;;;;5079480;28;20115;-67
2023/03/15 03:56:10;;;;;;;0.00;0.00;;;2.40;84.20;;;;;;5091684;28;20044;-66
2023/03/15 03:58:36;;;;;;;0.00;0.00;;;2.30;84.40;;;;;;5083520;28;20108;-67
2023/03/15 04:01:02;;;;;;;0.00;0.00;;;2.40;84.60;;;;;;5091046;28;20045;-66
2023/03/15 04:03:28;;;;;;;0.08;0.08;;;2.40;84.60;;;;;;5080680;28;20408;-66
2023/03/15 04:05:58;;;;;;;0.00;0.00;;;2.40;84.70;;;;;;5088844;28;20044;-67
2023/03/15 04:08:25;;;;;;;0.00;0.00;;;2.40;85.00;;;;;;5077814;28;20069;-66
2023/03/15 04:10:56;;;;;;;0.00;0.00;;;2.30;85.20;;;;;;5075227;28;20599;-67
2023/03/15 04:13:23;;;;;;;0.00;0.00;;;2.40;85.30;;;;;;5082249;28;20409;-67
2023/03/15 04:15:49;;;;;;;0.98;0.75;;;2.40;85.20;;;;;;5059106;28;20044;-66
2023/03/15 04:18:15;;;;;;;0.00;0.00;;;2.30;85.40;;;;;;5082330;28;20088;-66
2023/03/15 04:20:47;;;;;;;0.00;0.00;;;2.30;85.60;;;;;;5078500;28;20066;-66
2023/03/15 04:23:14;;;;;;;;;;;2.30;86.00;;;;;;5079576;28;20132;-67
2023/03/15 04:25:39;;;;;;;0.15;0.15;;;2.20;86.40;;;;;;5078595;28;20392;-66
2023/03/15 04:28:09;;;;;;;0.10;0.10;;;2.20;86.30;;;;;;5074190;28;20064;-66
2023/03/15 04:30:35;;;;;;;0.00;0.00;;;2.20;86.50;;;;;;5069337;28;20154;-66
2023/03/15 04:33:02;;;;;;;0.10;0.10;;;2.10;86.60;;;;;;5089171;28;20032;-66
2023/03/15 04:35:38;;;;;;;0.00;0.00;;;2.10;86.80;;;;;;5081124;28;20048;-66
2023/03/15 04:38:04;;;;;;;0.00;0.00;;;2.20;86.70;;;;;;5072202;28;20063;-66
2023/03/15 04:40:33;;;;;;;0.00;0.00;;;2.20;86.60;;;;;;5079913;28;20036;-66
2023/03/15 04:43:02;;;;;;;0.00;0.00;;;2.20;86.60;;;;;;5050747;28;20127;-67
2023/03/15 04:45:29;;;;;;;0.00;0.00;;;2.10;86.90;;;;;;5082829;28;20563;-66
2023/03/15 04:47:54;;;;;;;0.00;0.00;;;2.10;87.00;;;;;;5071224;28;20044;-66
2023/03/15 04:50:21;;;;;;;0.00;0.00;;;2.10;86.90;;;;;;5083310;28;20068;-66
2023/03/15 04:52:48;;;;;;;0.00;0.00;;;2.10;87.00;;;;;;5053256;28;20028;-66
2023/03/15 04:55:14;;;;;;;0.10;0.10;;;2.10;87.10;;;;;;5075004;28;20055;-66
2023/03/15 04:57:39;;;;;;;0.08;0.08;;;2.20;87.10;;;;;;5088994;28;20043;-66
2023/03/15 05:00:06;;;;;;;0.00;0.00;;;2.10;87.30;;;;;;5087611;28;20053;-66
2023/03/15 05:02:33;;;;;;;0.00;0.00;;;2.00;87.50;;;;;;5071046;28;20044;-66
2023/03/15 05:04:59;;;;;;;0.00;0.00;;;2.10;87.60;;;;;;5070632;28;20087;-66
2023/03/15 05:07:24;;;;;;;0.00;0.00;;;2.10;87.50;;;;;;5070608;28;20088;-66
2023/03/15 05:09:50;;;;;;;0.00;0.00;;;2.10;87.40;;;;;;5084206;28;20047;-66
2023/03/15 05:12:16;;;;;;;0.00;0.00;;;2.10;87.30;;;;;;5053221;28;20521;-66
2023/03/15 05:14:41;;;;;;;0.00;0.00;;;2.10;87.60;;;;;;5074406;28;20028;-66
2023/03/15 05:17:07;;;;;;;0.00;0.00;;;2.00;87.70;;;;;;5073431;28;20056;-66
2023/03/15 05:19:33;;;;;;;0.00;0.00;;;2.00;88.20;;;;;;5052884;28;20056;-67
2023/03/15 05:22:03;;;;;;;0.00;0.00;;;2.00;88.00;;;;;;5084389;28;20089;-66
2023/03/15 05:24:29;;;;;;;0.00;0.00;;;2.00;88.20;;;;;;5089988;28;20047;-66
2023/03/15 05:26:55;;;;;;;0.00;0.00;;;2.00;88.20;;;;;;5089625;28;20055;-66
2023/03/15 05:29:22;;;;;;;0.00;0.00;;;2.00;88.20;;;;;;5061725;28;20070;-67
2023/03/15 05:31:48;;;;;;;0.00;0.00;;;2.00;88.20;;;;;;5048541;28;20040;-66
2023/03/15 05:34:14;;;;;;;0.10;0.10;;;2.00;88.20;;;;;;5075945;28;20079;-66
2023/03/15 05:36:40;;;;;;;0.00;0.00;;;2.00;88.20;;;;;;5079335;28;20052;-66
2023/03/15 05:39:07;;;;;;;0.00;0.00;;;1.90;88.30;;;;;;5080505;28;20084;-66
2023/03/15 05:41:33;;;;;;;0.00;0.00;;;1.90;88.20;;;;;;5078561;28;20047;-66
2023/03/15 05:43:59;;;;;;;0.00;0.00;;;1.90;88.20;;;;;;5084024;28;20044;-66
2023/03/15 05:46:25;;;;;;;0.00;0.00;;;2.00;88.30;;;;;;5032845;28;20407;-66
2023/03/15 05:48:52;;;;;;;10.13;0.77;;;1.90;88.20;;;;;;5069690;28;20052;-66
2023/03/15 05:51:18;;;;;;;0.00;0.00;;;1.90;88.20;;;;;;5069298;28;20040;-66
2023/03/15 05:53:44;;;;;;;0.10;0.10;;;1.90;88.30;;;;;;5068495;28;20426;-66
2023/03/15 05:56:09;;;;;;;0.10;0.10;;;1.90;88.20;;;;;;5069571;28;20094;-67
2023/03/15 05:58:35;;;;;;;0.00;0.00;;;1.90;88.20;;;;;;5071921;28;20044;-66
2023/03/15 06:01:02;;;;;;;0.00;0.00;;;1.80;88.20;;;;;;5064277;28;20798;-66
2023/03/15 06:03:30;;;;;;;0.10;0.10;;;1.80;88.20;;;;;;5070456;28;20037;-66
2023/03/15 06:05:56;;;;;;;0.00;0.00;;;1.80;88.30;;;;;;5071398;28;20070;-66
2023/03/15 06:08:22;;;;;;;0.00;0.00;;;1.80;88.30;;;;;;5072099;28;20102;-66
2023/03/15 06:10:48;;;;;;;0.00;0.00;;;1.80;88.20;;;;;;5071085;28;20052;-66
2023/03/15 06:13:13;;;;;;;0.00;0.00;;;1.80;88.20;;;;;;5072659;28;20467;-66
2023/03/15 06:15:39;;;;;;;0.00;0.00;;;1.90;88.30;;;;;;5067621;28;20044;-66
2023/03/15 06:18:04;;;;;;;0.03;0.03;;;1.80;88.20;;;;;;5057435;28;20074;-66
2023/03/15 06:20:30;;;;;;;0.00;0.00;;;1.80;88.10;;;;;;5036883;28;20050;-66
2023/03/15 06:22:56;;;;;;;0.10;0.10;;;1.70;88.00;;;;;;5067686;28;20570;-66
2023/03/15 06:25:22;;;;;;;0.00;0.00;;;1.80;88.10;;;;;;5070475;28;20040;-67
2023/03/15 06:27:48;;;;;;;0.00;0.00;;;1.70;88.10;;;;;;5064270;28;20064;-67
2023/03/15 06:30:14;;;;;;;0.00;0.00;;;1.70;88.20;;;;;;5067405;28;20564;-67
2023/03/15 06:32:39;;;;;;;0.00;0.00;;;1.80;88.30;;;;;;5070956;28;20063;-66
2023/03/15 06:35:06;;;;;;;0.00;0.00;;;1.80;88.30;;;;;;5072560;28;20151;-66
2023/03/15 06:37:31;;;;;;;0.05;0.05;;;1.80;88.30;;;;;;5067471;28;20135;-65
2023/03/15 06:39:57;;;;;;;2.28;1.77;;;1.80;88.30;;;;;;5074135;28;20725;-66
2023/03/15 06:42:22;;;;;;;0.00;0.00;;;1.90;88.20;;;;;;5069560;28;20480;-66
2023/03/15 06:44:48;;;;;;;0.00;0.00;;;1.90;88.30;;;;;;5068437;28;20039;-65
2023/03/15 06:47:14;;;;;;;0.10;0.10;;;1.90;88.20;;;;;;5072038;28;20123;-65
2023/03/15 06:49:39;;;;;;;0.00;0.00;;;2.00;88.40;;;;;;5070365;28;20094;-65
2023/03/15 06:52:05;;;;;;;0.03;0.03;;;2.00;88.60;;;;;;5049943;28;20102;-66
2023/03/15 06:54:31;;;;;;;0.00;0.00;;;2.10;88.50;;;;;;5067318;28;20421;-65
2023/03/15 06:56:57;;;;;;;0.00;0.00;;;2.10;88.60;;;;;;5071141;28;20040;-65
2023/03/15 06:59:23;;;;;;;0.00;0.00;;;2.10;88.50;;;;;;5067629;28;20079;-65
2023/03/15 07:01:49;;;;;;;0.00;0.00;;;2.20;88.50;;;;;;5069820;28;20068;-66
2023/03/15 07:04:15;;;;;;;0.00;0.00;;;2.30;88.40;;;;;;5075800;28;20036;-66
2023/03/15 07:06:40;;;;;;;0.00;0.00;;;2.40;88.40;;;;;;5079727;28;20832;-65
2023/03/15 07:09:06;;;;;;;0.00;0.00;;;2.40;88.40;;;;;;5083121;28;20833;-65
2023/03/15 07:11:32;;;;;;;0.00;0.00;;;2.60;88.40;;;;;;5047635;28;20047;-65
2023/03/15 07:13:58;;;;;;;0.00;0.00;;;2.70;87.90;;;;;;5079284;28;20090;-65
2023/03/15 07:16:24;;;;;;;0.65;0.65;;;2.80;87.30;;;;;;5064301;28;20382;-66
2023/03/15 07:18:54;;;;;;;0.00;0.00;;;2.80;87.00;;;;;;5087089;28;20093;-64
2023/03/15 07:21:19;;;;;;;0.00;0.00;;;2.80;87.00;;;;;;5068854;28;20041;-65
2023/03/15 07:23:45;;;;;;;0.00;0.00;;;2.80;87.10;;;;;;5068830;28;20187;-66
2023/03/15 07:26:11;;;;;;;0.00;0.00;;;2.60;87.50;;;;;;5046059;28;20135;-65
2023/03/15 07:28:36;;;;;;;0.10;0.10;;;2.60;87.80;;;;;;5067519;28;20045;-65
2023/03/15 07:31:04;;;;;;;0.00;0.00;;;2.60;87.90;;;;;;5069427;28;20124;-64
2023/03/15 07:33:32;;;;;;;0.00;0.00;;;2.60;87.80;;;;;;5067591;28;20126;-66
2023/03/15 07:35:58;;;;;;;0.00;0.00;;;2.60;87.50;;;;;;5051472;28;20041;-66
2023/03/15 07:38:27;;;;;;;0.08;0.08;;;2.60;87.60;;;;;;5068170;28;20045;-66
2023/03/15 07:40:53;;;;;;;0.00;0.00;;;2.60;87.50;;;;;;5068119;28;20072;-66
2023/03/15 07:43:19;;;;;;;0.03;0.03;;;2.60;87.60;;;;;;5058295;28;20185;-66
2023/03/15 07:45:45;;;;;;;0.17;0.17;;;2.60;87.60;;;;;;5071454;28;20461;-63
2023/03/15 07:48:11;;;;;;;0.08;0.08;;;2.70;87.70;;;;;;5077075;28;20206;-64
2023/03/15 07:50:37;;;;;;;0.00;0.00;;;2.70;87.50;;;;;;5074032;28;20132;-63
2023/03/15 07:53:04;;;;;;;0.00;0.00;;;2.70;87.60;;;;;;5074832;28;20174;-64
2023/03/15 07:55:31;;;;;;;0.05;0.05;;;2.80;87.40;;;;;;5072661;28;20044;-63
2023/03/15 07:57:57;;;;;;;0.00;0.00;;;2.80;87.30;;;;;;5073165;28;20071;-64
2023/03/15 08:00:22;;;;;;;0.03;0.03;;;2.90;87.20;;;;;;5060057;28;20152;-63
2023/03/15 08:02:48;;;;;;;0.10;0.10;;;2.90;87.20;;;;;;5069792;28;20072;-63
2023/03/15 08:05:17;;;;;;;0.00;0.00;;;3.00;87.10;;;;;;5065055;28;20044;-63
2023/03/15 08:07:46;;;;;;;0.00;0.00;;;3.10;86.70;;;;;;5066698;28;20045;-63
2023/03/15 08:10:13;;;;;;;0.00;0.00;;;3.10;86.30;;;;;;5069573;28;20098;-62
2023/03/15 08:12:40;;;;;;;0.00;0.00;;;3.10;86.40;;;;;;5065494;28;20150;-63
2023/03/15 08:15:07;;;;;;;0.00;0.00;;;3.20;86.20;;;;;;5068452;28;20075;-63
2023/03/15 08:17:32;;;;;;;0.00;0.00;;;3.30;86.20;;;;;;5068383;28;20040;-64
2023/03/15 08:19:58;;;;;;;0.00;0.00;;;3.40;86.10;;;;;;5066188;28;20091;-64
2023/03/15 08:22:23;;;;;;;0.00;0.00;;;3.50;85.80;;;;;;5051134;28;20086;-64
2023/03/15 08:24:52;;;;;;;0.00;0.00;;;3.60;85.50;;;;;;5069236;28;20048;-64
2023/03/15 08:27:17;;;;;;;0.00;0.00;;;3.60;85.30;;;;;;5068854;28;20056;-64
2023/03/15 08:29:43;;;;;;;0.00;0.00;;;3.70;85.10;;;;;;5050489;28;20044;-64
2023/03/15 08:32:09;;;;;;;0.00;0.00;;;3.80;85.00;;;;;;5068382;28;20043;-64
2023/03/15 08:34:34;;;;;;;0.08;0.08;;;3.90;84.90;;;;;;5069375;28;20489;-64
2023/03/15 08:37:00;;;;;;;0.10;0.10;;;4.00;84.30;;;;;;5070024;28;20401;-65
2023/03/15 08:39:26;;;;;;;0.00;0.00;;;4.10;83.70;;;;;;5069463;28;20036;-64
2023/03/15 08:41:51;;;;;;;0.00;0.00;;;4.10;82.20;;;;;;5050787;28;20051;-65
2023/03/15 08:44:17;;;;;;;0.00;0.00;;;4.20;82.30;;;;;;5068607;28;20623;-64
2023/03/15 08:46:42;;;;;;;0.00;0.00;;;4.20;81.90;;;;;;5068188;28;20052;-65
2023/03/15 08:49:08;;;;;;;0.00;0.00;;;4.30;81.40;;;;;;5064601;28;20044;-65
2023/03/15 08:51:34;;;;;;;0.00;0.00;;;4.40;81.40;;;;;;5067808;28;20040;-66
2023/03/15 08:54:03;;;;;;;1.45;1.35;;;4.50;80.90;;;;;;5067601;28;20044;-65
2023/03/15 08:56:29;;;;;;;0.00;0.00;;;4.60;80.80;;;;;;5067324;28;20048;-65
2023/03/15 08:58:54;;;;;;;0.00;0.00;;;4.70;80.80;;;;;;5067351;28;20036;-65
2023/03/15 09:01:20;;;;;;;0.00;0.00;;;4.70;80.90;;;;;;5063893;28;20413;-65
2023/03/15 09:03:45;;;;;;;0.00;0.00;;;4.80;80.90;;;;;;5065873;28;20103;-65
2023/03/15 09:06:11;;;;;;;0.00;0.00;;;4.90;81.30;;;;;;5068082;28;20382;-65
2023/03/15 09:08:37;;;;;;;0.00;0.00;;;5.00;80.90;;;;;;5068284;28;20082;-65
2023/03/15 09:11:03;;;;;;;0.00;0.00;;;5.00;81.30;;;;;;5068850;28;20040;-64
2023/03/15 09:13:29;;;;;;;0.00;0.00;;;5.10;81.70;;;;;;5065372;28;20048;-65
2023/03/15 09:15:56;;;;;;;0.00;0.00;;;5.10;82.00;;;;;;5068493;28;20037;-64
2023/03/15 09:18:22;;;;;;;0.00;0.00;;;5.20;82.20;;;;;;5065879;28;20036;-64
2023/03/15 09:20:47;;;;;;;0.00;0.00;;;5.20;82.40;;;;;;5068896;28;20029;-66
2023/03/15 09:23:13;;;;;;;0.00;0.00;;;5.30;82.80;;;;;;5067742;28;20135;-64
2023/03/15 09:25:39;;;;;;;0.00;0.00;;;5.30;82.80;;;;;;5049477;28;20048;-65
2023/03/15 09:28:08;;;;;;;0.00;0.00;;;5.40;82.60;;;;;;5067796;28;20060;-64
2023/03/15 09:30:35;;;;;;;0.00;0.00;;;5.50;82.60;;;;;;5066644;28;20626;-65
2023/03/15 09:33:01;;;;;;;0.00;0.00;;;5.50;82.50;;;;;;5063204;28;20045;-65
2023/03/15 09:35:27;;;;;;;0.03;0.03;;;5.40;82.00;;;;;;5066573;28;20051;-64
2023/03/15 09:37:52;;;;;;;0.00;0.00;;;5.60;81.10;;;;;;5067590;28;20055;-68
2023/03/15 09:40:24;;;;;;;0.00;0.00;;;5.60;81.10;;;;;;5066042;28;20489;-68
2023/03/15 09:43:12;;;;;;;0.00;0.00;;;5.60;80.90;;;;;;5049283;28;20626;-70
2023/03/15 09:46:05;;;;;;;0.00;0.00;;;5.70;78.70;;;;;;5047397;28;20408;-67
2023/03/15 09:48:36;;;;;;;;;;;5.80;77.60;;;;;;5067090;28;20041;-65
2023/03/15 09:51:14;;;;;;;0.08;0.08;;;5.80;77.40;;;;;;5066445;28;19931;-65
2023/03/15 09:53:56;;;;;;;0.10;0.10;;;5.90;78.40;;;;;;5066997;28;20040;-64
2023/03/15 09:56:44;;;;;;;0.00;0.00;;;6.10;75.30;;;;;;5066154;28;20075;-65
2023/03/15 09:59:11;;;;;;;0.00;0.00;;;6.20;74.60;;;;;;5066378;28;20043;-65
2023/03/15 10:01:40;;;;;;;0.00;0.00;;;6.40;74.80;;;;;;5066958;28;20044;-65
2023/03/15 10:04:30;;;;;;;0.00;0.00;;;6.50;73.40;;;;;;5068125;28;20036;-65
2023/03/15 10:06:58;;;;;;;0.20;0.20;;;6.60;73.60;;;;;;5067791;28;20132;-67
2023/03/15 10:09:26;;;;;;;0.00;0.00;;;6.60;72.10;;;;;;5068054;28;20049;-67
2023/03/15 10:12:00;;;;;;;0.05;0.05;;;6.60;70.70;;;;;;5065027;28;20044;-67
2023/03/15 10:15:06;;;;;;;0.00;0.00;;;6.60;69.10;;;;;;5067407;28;20424;-67
2023/03/15 10:17:47;;;;;;;0.00;0.00;;;6.60;69.40;;;;;;5064804;28;20045;-67
2023/03/15 10:20:22;;;;;;;0.00;0.00;;;6.70;69.60;;;;;;5065043;28;21013;-68
2023/03/15 10:23:17;;;;;;;0.40;0.40;;;6.70;69.00;;;;;;5067089;28;20056;-67
2023/03/15 10:25:44;;;;;;;1.35;1.27;;;6.70;61.80;;;;;;5067654;28;20584;-66
2023/03/15 10:28:19;;;;;;;0.00;0.00;;;6.70;62.60;;;;;;5065792;28;20080;-67
2023/03/15 10:30:48;;;;;;;0.00;0.00;;;6.50;62.40;;;;;;5065423;28;20037;-67
2023/03/15 10:33:34;;;;;;;0.00;0.00;;;6.40;63.90;;;;;;5063992;28;20045;-66
2023/03/15 10:36:08;;;;;;;0.00;0.00;;;6.40;65.00;;;;;;5067041;28;20637;-67
2023/03/15 10:38:34;;;;;;;0.00;0.00;;;6.40;64.10;;;;;;5068464;28;20049;-67
2023/03/15 10:40:59;;;;;;;0.10;0.10;;;6.50;65.40;;;;;;5071073;28;20044;-66
2023/03/15 10:43:29;;;;;;;0.00;0.00;;;6.60;64.30;;;;;;5080259;28;20078;-67
2023/03/15 10:46:21;;;;;;;0.00;0.00;;;6.60;61.40;;;;;;5075383;28;20036;-67
2023/03/15 10:49:10;;;;;;;0.05;0.05;;;6.70;62.30;;;;;;5068794;28;20040;-67
2023/03/15 10:51:45;;;;;;;0.00;0.00;;;6.80;63.10;;;;;;5069119;28;20051;-68
2023/03/15 10:54:23;;;;;;;0.88;0.85;;;6.90;61.80;;;;;;5075778;28;20083;-66
2023/03/15 10:57:04;;;;;;;0.00;0.00;;;6.90;62.80;;;;;;5074175;28;20047;-67
2023/03/15 10:59:33;;;;;;;0.35;0.35;;;6.90;63.00;;;;;;5053750;28;20059;-68
2023/03/15 11:02:11;;;;;;;0.00;0.00;;;7.00;62.20;;;;;;5069278;28;20047;-65
2023/03/15 11:05:00;;;;;;;0.00;0.00;;;6.90;60.80;;;;;;5030868;28;20060;-68
2023/03/15 11:07:26;;;;;;;0.00;0.00;;;7.00;62.00;;;;;;5079001;28;20039;-67
2023/03/15 11:09:54;;;;;;;0.00;0.00;;;7.00;59.60;;;;;;5089039;28;20063;-65
2023/03/15 11:12:33;;;;;;;6.88;1.05;;;7.00;61.00;;;;;;5089186;28;20040;-64
2023/03/15 11:15:09;;;;;;;0.08;0.08;;;7.00;62.90;;;;;;5088948;28;20040;-63
2023/03/15 11:17:44;;;;;;;0.00;0.00;;;7.00;61.60;;;;;;5088627;28;20039;-64
2023/03/15 11:20:29;;;;;;;0.00;0.00;;;7.10;63.10;;;;;;5088910;28;20115;-63
2023/03/15 11:22:55;;;;;;;0.00;0.00;;;7.00;63.60;;;;;;5048608;28;20064;-64
2023/03/15 11:25:28;;;;;;;0.00;0.00;;;7.10;63.60;;;;;;5030454;28;20043;-64
2023/03/15 11:27:54;;;;;;;0.00;0.00;;;7.10;62.60;;;;;;5066293;28;20175;-60
2023/03/15 11:30:28;;;;;;;0.00;0.00;;;7.00;64.20;;;;;;5042485;28;20062;-63
2023/03/15 11:32:57;;;;;;;0.00;0.00;;;7.00;63.90;;;;;;5074532;28;20504;-63
2023/03/15 11:35:29;;;;;;;0.00;0.00;;;6.90;63.80;;;;;;5071391;28;20105;-64
2023/03/15 11:38:00;;;;;;;0.05;0.05;;;6.80;62.70;;;;;;5075615;28;20090;-64
2023/03/15 11:40:43;;;;;;;0.00;0.00;;;6.90;63.80;;;;;;5070252;28;20158;-64
2023/03/15 11:43:20;;;;;;;0.20;0.20;;;6.90;63.90;;;;;;5075020;28;20048;-64
2023/03/15 11:46:07;;;;;;;0.00;0.00;;;6.90;63.20;;;;;;5077813;28;20060;-64
2023/03/15 11:48:48;;;;;;;0.03;0.03;;;6.70;64.50;;;;;;5080409;28;20036;-62
2023/03/15 11:51:14;;;;;;;0.10;0.10;;;6.60;64.80;;;;;;5083779;28;20179;-62
2023/03/15 11:53:46;;;;;;;0.00;0.00;;;6.70;65.10;;;;;;5077116;28;20127;-64
2023/03/15 11:56:42;;;;;;;0.10;0.10;;;6.70;66.20;;;;;;5071127;28;20040;-64
2023/03/15 11:59:12;;;;;;;0.08;0.08;;;6.90;64.50;;;;;;5071017;28;20217;-63
2023/03/15 12:01:57;;;;;;;0.00;0.00;;;7.10;62.50;;;;;;5071004;28;20183;-64
2023/03/15 12:04:32;;;;;;;0.00;0.00;;;7.20;63.70;;;;;;5082565;28;20051;-64
2023/03/15 12:07:34;;;;;;;0.20;0.20;;;7.10;62.00;;;;;;5077562;28;20751;-64
2023/03/15 12:10:02;;;;;;;0.00;0.00;;;7.20;63.30;;;;;;5081067;28;20562;-64
2023/03/15 12:12:28;;;;;;;0.00;0.00;;;7.30;63.50;;;;;;5073065;28;20745;-64
2023/03/15 12:15:12;;;;;;;0.00;0.00;;;7.40;63.10;;;;;;5071115;28;20041;-64
2023/03/15 12:17:48;;;;;;;0.00;0.00;;;7.50;61.30;;;;;;5053253;28;20046;-64
2023/03/15 12:20:35;;;;;;;0.10;0.10;;;7.60;60.60;;;;;;5070301;28;20132;-64
2023/03/15 12:23:16;;;;;;;0.00;0.00;;;7.60;62.20;;;;;;5069097;28;20048;-64
2023/03/15 12:26:00;;;;;;;0.00;0.00;;;7.60;59.00;;;;;;5071035;28;20036;-64
2023/03/15 12:28:50;;;;;;;0.00;0.00;;;7.60;56.90;;;;;;5067921;28;20044;-64
2023/03/15 12:31:16;;;;;;;0.00;0.00;;;7.60;58.70;;;;;;5068816;28;20036;-63
2023/03/15 12:33:47;;;;;;;0.00;0.00;;;7.60;57.30;;;;;;5071973;28;20039;-63
2023/03/15 12:36:35;;;;;;;0.00;0.00;;;7.70;58.10;;;;;;5070438;28;20056;-63
2023/03/15 12:39:35;;;;;;;0.00;0.00;;;7.60;56.40;;;;;;5068319;28;20048;-63
2023/03/15 12:42:02;;;;;;;0.00;0.00;;;7.60;57.80;;;;;;5068388;28;20397;-63
2023/03/15 12:44:31;;;;;;;0.00;0.00;;;7.60;57.60;;;;;;5069917;28;20044;-63
2023/03/15 12:46:59;;;;;;;0.10;0.10;;;7.70;56.50;;;;;;5066845;28;20573;-63
2023/03/15 12:49:35;;;;;;;0.82;0.82;;;7.70;58.40;;;;;;5049656;28;20052;-63
2023/03/15 12:52:10;;;;;;;0.00;0.00;;;7.80;59.00;;;;;;5068335;28;20714;-63
2023/03/15 12:55:00;;;;;;;0.00;0.00;;;7.90;56.80;;;;;;5069566;28;20047;-63
2023/03/15 12:57:35;;;;;;;0.00;0.00;;;7.90;55.10;;;;;;5050377;28;20461;-62
2023/03/15 13:00:11;;;;;;;0.00;0.00;;;8.00;55.40;;;;;;5050578;28;20037;-63
2023/03/15 13:02:45;;;;;;;0.00;0.00;;;8.00;54.40;;;;;;5049967;28;20053;-63
2023/03/15 13:05:29;;;;;;;0.00;0.00;;;8.00;54.80;;;;;;5065020;28;20048;-63
2023/03/15 13:08:35;;;;;;;0.00;0.00;;;8.10;54.40;;;;;;5070456;28;20135;-63
2023/03/15 13:11:32;;;;;;;0.00;0.00;;;8.10;56.60;;;;;;5020016;28;20129;-63